Time;durP1;ratioP1;P1;durP2;ratioP2;P2;SDS_P1;SDS_P2;PMS_P1;PMS_P2;Temp;Humidity;BMP_temperature;BMP_pressure;BME280_temperature;BME280_humidity;BME280_pressure;Samples;Min_cycle;Max_cycle;Signal;HPM_P1;HPM_P2
2023/10/07 00:02:15;;;;;;;14.73;6.03;;;15.00;84.20;;;;;;5056271;28;20044;-70
2023/10/07 00:04:42;;;;;;;11.82;5.80;;;14.90;84.70;;;;;;5056498;28;20021;-70
2023/10/07 00:07:10;;;;;;;13.02;6.05;;;14.90;82.30;;;;;;5056448;28;20120;-70
2023/10/07 00:09:41;;;;;;;15.68;6.63;;;14.90;72.80;;;;;;5056031;28;20025;-70
2023/10/07 00:12:16;;;;;;;15.80;6.72;;;14.90;74.00;;;;;;5055639;28;20029;-70
2023/10/07 00:14:43;;;;;;;13.65;6.47;;;14.80;79.00;;;;;;5056271;28;20467;-70
2023/10/07 00:17:16;;;;;;;13.55;6.18;;;14.80;76.60;;;;;;5056226;28;20032;-70
2023/10/07 00:19:42;;;;;;;14.38;6.65;;;14.80;73.60;;;;;;5055511;28;20074;-70
2023/10/07 00:22:09;;;;;;;13.63;6.53;;;14.80;78.80;;;;;;5056272;28;20048;-70
2023/10/07 00:24:40;;;;;;;15.45;6.85;;;14.70;79.80;;;;;;5056098;28;20447;-70
2023/10/07 00:27:13;;;;;;;13.15;6.30;;;14.70;78.40;;;;;;5055105;28;20025;-70
2023/10/07 00:29:54;;;;;;;15.63;6.63;;;14.70;77.00;;;;;;5055798;28;20115;-70
2023/10/07 00:32:26;;;;;;;15.27;6.35;;;14.60;84.60;;;;;;5056268;28;20025;-70
2023/10/07 00:34:53;;;;;;;15.82;6.47;;;14.60;82.80;;;;;;5055851;28;20033;-70
2023/10/07 00:37:18;;;;;;;14.20;6.47;;;14.60;81.40;;;;;;5055552;28;20025;-70
2023/10/07 00:39:46;;;;;;;10.23;6.15;;;14.60;84.40;;;;;;5055281;28;20405;-70
2023/10/07 00:42:11;;;;;;;15.88;7.13;;;14.60;85.00;;;;;;5055771;28;20474;-69
2023/10/07 00:44:37;;;;;;;13.40;6.72;;;14.50;90.40;;;;;;5055689;28;20028;-70
2023/10/07 00:49:53;;;;;;;11.80;7.18;;;14.50;92.20;;;;;;5071429;28;20441;-70
2023/10/07 00:52:28;;;;;;;14.45;7.07;;;14.40;96.30;;;;;;5070885;28;20083;-70
2023/10/07 00:57:47;;;;;;;17.77;6.22;;;14.30;98.40;;;;;;5071364;28;20394;-70
2023/10/07 01:03:13;;;;;;;12.45;5.65;;;14.30;99.20;;;;;;5070789;28;20035;-70
2023/10/07 01:05:53;;;;;;;14.07;6.88;;;14.40;98.60;;;;;;5071418;28;20044;-70
2023/10/07 01:08:27;;;;;;;12.40;6.80;;;14.30;99.90;;;;;;5070797;28;20032;-70
2023/10/07 01:11:06;;;;;;;16.25;6.20;;;14.30;99.90;;;;;;5070758;28;20146;-70
2023/10/07 01:13:33;;;;;;;13.80;6.90;;;14.30;99.90;;;;;;5070605;28;20028;-70
2023/10/07 01:15:59;;;;;;;11.77;6.65;;;14.30;99.90;;;;;;5070922;28;20037;-70
2023/10/07 01:18:27;;;;;;;14.38;6.75;;;14.30;99.90;;;;;;5070502;28;20024;-70
2023/10/07 01:23:33;;;;;;;15.98;6.70;;;14.30;99.90;;;;;;5089761;27;1859768;-70
2023/10/07 01:25:59;;;;;;;13.15;6.30;;;14.30;99.90;;;;;;5132560;28;20063;-69
2023/10/07 01:28:26;;;;;;;12.68;6.43;;;14.30;99.90;;;;;;5132217;28;20368;-70
2023/10/07 01:31:08;;;;;;;11.98;6.93;;;14.40;99.90;;;;;;5131567;28;20031;-70
2023/10/07 01:33:38;;;;;;;13.20;6.80;;;14.40;99.90;;;;;;5131813;28;20035;-70
2023/10/07 01:36:10;;;;;;;15.40;6.28;;;14.30;99.90;;;;;;5132417;28;20023;-70
2023/10/07 01:38:41;;;;;;;16.25;6.72;;;14.30;99.90;;;;;;5132082;28;20377;-70
2023/10/07 01:41:14;;;;;;;11.52;6.20;;;14.30;99.90;;;;;;5131610;28;20496;-70
2023/10/07 01:43:48;;;;;;;;;;;14.30;99.90;;;;;;5131806;28;20493;-72
2023/10/07 01:46:19;;;;;;;18.20;6.35;;;14.30;99.90;;;;;;5131908;28;19949;-70
2023/10/07 01:49:17;;;;;;;17.10;6.03;;;14.40;99.90;;;;;;5131842;28;20123;-76
2023/10/07 01:51:31;;;;;;;13.48;6.38;;;14.30;99.90;;;;;;5130906;28;20511;-70
2023/10/07 01:54:02;;;;;;;14.93;6.00;;;14.30;99.90;;;;;;5131981;28;20019;-70
2023/10/07 01:56:29;;;;;;;18.02;6.88;;;14.30;99.90;;;;;;5131591;28;20034;-70
2023/10/07 01:58:58;;;;;;;12.07;6.25;;;14.30;99.90;;;;;;5131732;28;20032;-70
2023/10/07 02:01:28;;;;;;;15.82;6.53;;;14.30;99.90;;;;;;5131271;28;20435;-70
2023/10/07 02:03:57;;;;;;;16.55;6.57;;;14.40;99.90;;;;;;5131852;28;20457;-69
2023/10/07 02:06:24;;;;;;;13.40;6.60;;;14.30;99.90;;;;;;5131432;28;20045;-70
2023/10/07 02:08:50;;;;;;;12.95;6.47;;;14.40;99.90;;;;;;5131414;28;20035;-70
2023/10/07 02:11:25;;;;;;;15.80;6.15;;;14.30;99.90;;;;;;5130297;28;20019;-70
2023/10/07 02:13:51;;;;;;;11.50;6.20;;;14.30;99.90;;;;;;5131769;28;20051;-71
2023/10/07 02:16:19;;;;;;;18.88;7.30;;;14.40;99.90;;;;;;5131108;28;20511;-70
2023/10/07 02:18:45;;;;;;;22.38;7.22;;;14.40;99.90;;;;;;5131251;28;20058;-70
2023/10/07 02:21:10;;;;;;;14.88;7.38;;;14.40;99.90;;;;;;5130897;28;20392;-70
2023/10/07 02:23:37;;;;;;;18.98;7.97;;;14.40;99.90;;;;;;5130326;28;20039;-70
2023/10/07 02:26:07;;;;;;;21.40;7.20;;;14.40;99.90;;;;;;5131094;28;20044;-70
2023/10/07 02:28:34;;;;;;;14.02;6.78;;;14.40;99.90;;;;;;5130922;28;20032;-70
2023/10/07 02:31:07;;;;;;;19.38;7.00;;;14.40;99.90;;;;;;5131359;28;20473;-71
2023/10/07 02:33:41;;;;;;;16.73;6.97;;;14.40;99.90;;;;;;5124746;28;20019;-70
2023/10/07 02:36:12;;;;;;;14.95;6.90;;;14.40;99.90;;;;;;5117171;28;20034;-70
2023/10/07 02:38:41;;;;;;;13.68;7.00;;;14.40;99.90;;;;;;5116387;28;20108;-70
2023/10/07 02:41:17;;;;;;;17.25;6.72;;;14.40;99.90;;;;;;5117373;28;20023;-72
2023/10/07 02:43:47;;;;;;;18.58;7.93;;;14.40;99.90;;;;;;5117123;28;20051;-71
2023/10/07 02:46:26;;;;;;;14.07;6.95;;;14.50;99.90;;;;;;5116996;28;20523;-70
2023/10/07 02:48:55;;;;;;;15.07;7.18;;;14.40;99.90;;;;;;5117005;28;20023;-70
2023/10/07 02:51:21;;;;;;;13.23;6.95;;;14.40;99.90;;;;;;5117241;28;20107;-70
2023/10/07 02:53:46;;;;;;;17.63;7.82;;;14.40;99.90;;;;;;5117307;28;20066;-70
2023/10/07 02:56:21;;;;;;;17.77;7.60;;;14.40;99.90;;;;;;5117132;28;20432;-70
2023/10/07 02:58:58;;;;;;;17.05;7.50;;;14.50;99.90;;;;;;5116880;28;20024;-70
2023/10/07 03:01:26;;;;;;;19.35;7.57;;;14.50;99.90;;;;;;5117095;28;20429;-70
2023/10/07 03:03:53;;;;;;;14.73;7.97;;;14.50;99.90;;;;;;5117131;28;20023;-70
2023/10/07 03:06:19;;;;;;;20.83;8.18;;;14.50;99.90;;;;;;5116437;28;20027;-70
2023/10/07 03:11:24;;;;;;;22.42;8.75;;;14.50;99.90;;;;;;5112015;27;20109;-70
2023/10/07 03:13:50;;;;;;;16.73;8.32;;;14.50;99.90;;;;;;5111864;28;20028;-70
2023/10/07 03:24:26;;;;;;;18.27;9.23;;;14.50;99.90;;;;;;5070370;28;20017;-70
2023/10/07 03:26:55;;;;;;;21.70;9.02;;;14.60;99.90;;;;;;5071405;28;20024;-70
2023/10/07 03:29:30;;;;;;;16.35;9.52;;;14.50;99.90;;;;;;5071145;28;20021;-70
2023/10/07 03:31:59;;;;;;;15.68;8.77;;;14.50;99.90;;;;;;5070794;28;20025;-70
2023/10/07 03:34:25;;;;;;;20.90;10.30;;;14.50;99.90;;;;;;5070606;28;20079;-69
2023/10/07 03:37:14;;;;;;;18.27;9.88;;;14.50;99.90;;;;;;5070795;28;20465;-70
2023/10/07 03:42:23;;;;;;;24.63;11.65;;;14.60;99.90;;;;;;5070066;28;20021;-70
2023/10/07 03:44:49;;;;;;;24.92;12.13;;;14.50;99.90;;;;;;5070875;28;20035;-70
2023/10/07 03:47:15;;;;;;;24.48;12.30;;;14.60;99.90;;;;;;5071095;28;20063;-70
2023/10/07 03:49:41;;;;;;;24.30;12.88;;;14.60;99.90;;;;;;5070024;28;20057;-70
2023/10/07 03:52:08;;;;;;;19.30;11.88;;;14.60;99.90;;;;;;5070564;28;20481;-70
2023/10/07 03:54:34;;;;;;;26.63;13.15;;;14.60;99.90;;;;;;5070912;28;20098;-70
2023/10/07 03:57:00;;;;;;;24.35;13.20;;;14.60;99.90;;;;;;5070420;28;20025;-70
2023/10/07 03:59:27;;;;;;;23.50;13.77;;;14.60;99.90;;;;;;5070744;28;20356;-71
2023/10/07 04:01:53;;;;;;;30.70;15.50;;;14.60;99.90;;;;;;5070333;28;20025;-70
2023/10/07 04:04:22;;;;;;;28.90;14.68;;;14.60;99.90;;;;;;5070264;28;20044;-70
2023/10/07 04:06:48;;;;;;;27.30;16.27;;;14.70;99.90;;;;;;5070558;28;20028;-70
2023/10/07 04:09:14;;;;;;;29.83;16.83;;;14.60;99.90;;;;;;5070048;28;20032;-70
2023/10/07 04:11:48;;;;;;;30.10;15.80;;;14.70;99.90;;;;;;5070627;28;20052;-70
2023/10/07 04:14:30;;;;;;;35.90;17.38;;;14.70;99.90;;;;;;5070313;28;20029;-70
2023/10/07 04:17:05;;;;;;;29.07;17.03;;;14.70;99.90;;;;;;5069844;28;20049;-70
2023/10/07 04:19:34;;;;;;;34.35;18.27;;;14.70;99.90;;;;;;5070128;28;20037;-70
2023/10/07 04:22:03;;;;;;;34.20;18.83;;;14.70;99.90;;;;;;5070317;28;20356;-70
2023/10/07 04:24:30;;;;;;;34.72;17.90;;;14.70;99.90;;;;;;5070404;28;20443;-70
2023/10/07 04:27:01;;;;;;;36.50;18.67;;;14.70;99.90;;;;;;5069570;28;20517;-71
2023/10/07 04:29:27;;;;;;;29.63;18.63;;;14.70;99.90;;;;;;5061702;28;20108;-70
2023/10/07 04:31:54;;;;;;;33.60;18.02;;;14.70;99.90;;;;;;5056470;28;20060;-70
2023/10/07 04:34:22;;;;;;;28.95;18.60;;;14.70;99.90;;;;;;5056565;28;20021;-70
2023/10/07 04:42:36;;;;;;;34.13;19.63;;;14.70;99.90;;;;;;5070403;28;20033;-70
2023/10/07 04:47:57;;;;;;;41.78;18.85;;;14.70;99.90;;;;;;5070591;28;20364;-70
2023/10/07 04:50:35;;;;;;;33.08;18.27;;;14.70;99.90;;;;;;5070972;28;20063;-70
2023/10/07 04:53:03;;;;;;;32.90;20.00;;;14.70;99.90;;;;;;5070236;28;20025;-70
2023/10/07 04:55:29;;;;;;;36.63;19.50;;;14.70;99.90;;;;;;5070844;28;20024;-70
2023/10/07 05:03:14;;;;;;;33.72;22.17;;;14.70;99.90;;;;;;5091561;28;20894;-70
2023/10/07 05:05:43;;;;;;;39.05;21.50;;;14.70;99.90;;;;;;5091485;28;20021;-70
2023/10/07 05:08:11;;;;;;;40.97;22.55;;;14.80;99.90;;;;;;5091130;28;20032;-70
2023/10/07 05:10:41;;;;;;;37.78;22.90;;;14.80;99.90;;;;;;5091629;28;20081;-70
2023/10/07 05:13:07;;;;;;;39.95;24.05;;;14.70;99.90;;;;;;5091106;28;20367;-70
2023/10/07 05:15:36;;;;;;;36.20;22.48;;;14.80;99.90;;;;;;5091152;28;20055;-70
2023/10/07 05:18:03;;;;;;;39.83;23.35;;;14.80;99.90;;;;;;5091401;28;20040;-70
2023/10/07 05:20:32;;;;;;;44.10;24.27;;;14.80;99.90;;;;;;5091476;28;20055;-70
2023/10/07 05:23:00;;;;;;;38.20;23.58;;;14.80;99.90;;;;;;5090800;28;20024;-70
2023/10/07 05:25:26;;;;;;;39.13;24.70;;;14.80;99.90;;;;;;5091269;28;20025;-70
2023/10/07 05:27:51;;;;;;;37.17;23.83;;;14.80;99.90;;;;;;5091078;28;20166;-70
2023/10/07 05:30:18;;;;;;;44.72;24.42;;;14.80;99.90;;;;;;5090966;28;20044;-70
2023/10/07 05:32:46;;;;;;;41.65;25.27;;;14.80;99.90;;;;;;5090941;28;20032;-70
2023/10/07 05:35:14;;;;;;;42.47;25.27;;;14.80;99.90;;;;;;5090862;28;20381;-70
2023/10/07 05:37:42;;;;;;;42.47;24.70;;;14.80;99.90;;;;;;5090518;28;20024;-70
2023/10/07 05:40:08;;;;;;;38.00;24.70;;;14.80;99.90;;;;;;5090886;28;20359;-70
2023/10/07 05:42:33;;;;;;;45.35;25.45;;;14.80;99.90;;;;;;5090415;28;20078;-70
2023/10/07 05:44:59;;;;;;;53.17;25.98;;;14.90;99.90;;;;;;5090987;28;20028;-70
2023/10/07 05:47:25;;;;;;;41.40;25.70;;;14.90;99.90;;;;;;5090313;28;20458;-71
2023/10/07 05:49:55;;;;;;;41.50;24.92;;;14.90;99.90;;;;;;5070163;28;20437;-70
2023/10/07 05:52:21;;;;;;;47.00;27.42;;;14.90;99.90;;;;;;5070198;28;20112;-70
2023/10/07 05:54:46;;;;;;;38.65;25.52;;;14.90;99.90;;;;;;5069686;28;20071;-70
2023/10/07 05:57:13;;;;;;;41.15;25.90;;;14.90;99.90;;;;;;5070143;28;20036;-70
2023/10/07 05:59:42;;;;;;;49.20;28.25;;;14.90;99.90;;;;;;5070363;28;20029;-70
2023/10/07 06:02:12;;;;;;;44.65;26.67;;;15.00;99.90;;;;;;5069486;28;20041;-70
2023/10/07 06:04:39;;;;;;;48.28;27.90;;;14.90;99.90;;;;;;5069765;28;20053;-70
2023/10/07 06:07:06;;;;;;;49.20;29.40;;;15.00;99.90;;;;;;5069409;28;20029;-70
2023/10/07 06:09:31;;;;;;;48.72;28.83;;;15.00;99.90;;;;;;5069703;28;20547;-71
2023/10/07 06:11:59;;;;;;;51.42;27.00;;;15.00;99.90;;;;;;5068836;28;20024;-70
2023/10/07 06:14:24;;;;;;;54.58;28.30;;;15.00;99.90;;;;;;5057084;28;20083;-70
2023/10/07 06:16:52;;;;;;;52.47;28.02;;;15.00;99.90;;;;;;5056040;28;20487;-70
2023/10/07 06:19:18;;;;;;;49.58;28.10;;;15.00;99.90;;;;;;5056159;28;20025;-70
2023/10/07 06:21:50;;;;;;;44.30;27.92;;;15.10;99.90;;;;;;5056620;28;20116;-70
2023/10/07 06:24:21;;;;;;;48.67;29.43;;;15.00;99.90;;;;;;5056761;28;20031;-70
2023/10/07 06:26:48;;;;;;;48.40;28.58;;;15.10;99.90;;;;;;5056369;28;20263;-70
2023/10/07 06:29:21;;;;;;;42.55;26.20;;;15.10;99.90;;;;;;5056336;28;20360;-70
2023/10/07 06:31:54;;;;;;;46.45;27.38;;;15.10;99.90;;;;;;5056309;28;20064;-70
2023/10/07 06:34:25;;;;;;;;;;;15.10;99.90;;;;;;5056762;28;20033;-70
2023/10/07 06:36:52;;;;;;;47.25;27.20;;;15.10;99.90;;;;;;5056270;28;19919;-70
2023/10/07 06:39:27;;;;;;;44.03;27.13;;;15.10;99.90;;;;;;5056039;28;20484;-70
2023/10/07 06:41:53;;;;;;;45.67;26.30;;;15.10;99.90;;;;;;5056256;28;20513;-70
2023/10/07 06:44:18;;;;;;;44.97;26.05;;;15.20;99.90;;;;;;5055907;28;20033;-70
2023/10/07 06:46:46;;;;;;;48.90;26.70;;;15.20;99.90;;;;;;5056067;28;20036;-70
2023/10/07 06:49:20;;;;;;;47.70;27.45;;;15.20;99.90;;;;;;5055925;28;20070;-71
2023/10/07 06:51:53;;;;;;;36.08;25.67;;;15.20;99.90;;;;;;5055616;28;20086;-70
2023/10/07 06:54:19;;;;;;;45.08;26.35;;;15.20;99.90;;;;;;5055790;28;20485;-70
2023/10/07 06:56:46;;;;;;;45.22;26.45;;;15.20;99.90;;;;;;5055387;28;20040;-70
2023/10/07 06:59:13;;;;;;;47.05;25.88;;;15.20;99.90;;;;;;5055901;28;20036;-70
2023/10/07 07:04:19;;;;;;;45.05;26.10;;;15.30;99.90;;;;;;5091548;27;20311;-71
2023/10/07 07:06:47;;;;;;;42.67;24.85;;;15.30;99.90;;;;;;5091472;28;20543;-70
2023/10/07 07:12:17;;;;;;;41.50;25.58;;;15.30;99.90;;;;;;5090513;28;20550;-70
2023/10/07 07:14:50;;;;;;;48.70;27.25;;;15.40;99.90;;;;;;5090398;28;20031;-70
2023/10/07 07:17:47;;;;;;;;;;;15.40;99.90;;;;;;5092027;28;20513;-70
2023/10/07 07:22:43;;;;;;;43.47;25.23;;;15.40;99.90;;;;;;5090705;28;20035;-70
2023/10/07 07:25:12;;;;;;;49.38;26.38;;;15.40;99.90;;;;;;5090728;28;20070;-73
2023/10/07 07:27:44;;;;;;;49.00;26.48;;;15.50;99.90;;;;;;5091035;28;20041;-70
2023/10/07 07:30:19;;;;;;;40.28;25.33;;;15.50;99.90;;;;;;5090868;28;20107;-70
2023/10/07 07:32:45;;;;;;;45.35;25.40;;;15.50;99.90;;;;;;5090832;28;20024;-70
2023/10/07 07:35:11;;;;;;;46.97;25.25;;;15.60;99.90;;;;;;5090885;28;20425;-70
2023/10/07 07:37:37;;;;;;;41.75;25.02;;;15.60;99.90;;;;;;5090876;28;20128;-70
2023/10/07 07:42:55;;;;;;;39.88;24.98;;;15.60;99.90;;;;;;5089769;28;20025;-70
2023/10/07 07:45:26;;;;;;;42.53;24.88;;;15.70;99.90;;;;;;5090630;28;20044;-70
2023/10/07 07:47:53;;;;;;;44.70;25.75;;;15.70;99.90;;;;;;5090395;28;20493;-70
2023/10/07 07:50:19;;;;;;;39.25;23.60;;;15.70;99.90;;;;;;5090616;28;20051;-70
2023/10/07 07:52:49;;;;;;;43.88;24.23;;;15.70;99.90;;;;;;5089635;28;20059;-70
2023/10/07 07:55:16;;;;;;;41.22;24.63;;;15.70;99.90;;;;;;5090200;28;20070;-70
2023/10/07 07:57:44;;;;;;;43.72;26.15;;;15.70;99.90;;;;;;5090561;28;20040;-70
2023/10/07 08:00:20;;;;;;;40.67;23.00;;;15.70;99.90;;;;;;5090477;28;20359;-70
2023/10/07 08:02:48;;;;;;;35.17;22.83;;;15.90;99.90;;;;;;5089841;28;20055;-70
2023/10/07 08:05:16;;;;;;;41.50;23.15;;;16.00;99.90;;;;;;5090310;28;20039;-70
2023/10/07 08:07:43;;;;;;;36.85;22.70;;;16.20;99.90;;;;;;5090507;28;20458;-70
2023/10/07 08:10:10;;;;;;;35.65;23.08;;;16.30;99.90;;;;;;5090235;28;20153;-70
2023/10/07 08:12:36;;;;;;;35.65;21.92;;;16.40;99.90;;;;;;5090049;28;20029;-70
2023/10/07 08:17:52;;;;;;;31.27;22.20;;;16.40;99.90;;;;;;5075822;28;20529;-70
2023/10/07 08:20:28;;;;;;;32.38;21.83;;;16.40;99.90;;;;;;5076848;28;20101;-69
2023/10/07 08:22:54;;;;;;;31.60;21.33;;;16.30;99.90;;;;;;5076318;28;20029;-70
2023/10/07 08:25:37;;;;;;;29.23;20.38;;;16.30;99.90;;;;;;5076432;28;20024;-70
2023/10/07 08:28:22;;;;;;;33.92;20.38;;;16.40;99.90;;;;;;5076464;28;20119;-69
2023/10/07 08:30:48;;;;;;;31.83;20.27;;;16.40;99.90;;;;;;5076620;28;20033;-70
2023/10/07 08:33:15;;;;;;;27.55;19.35;;;16.50;99.90;;;;;;5076302;28;20025;-70
2023/10/07 08:35:43;;;;;;;29.10;18.42;;;16.70;99.90;;;;;;5076495;28;20033;-70
2023/10/07 08:38:20;;;;;;;28.73;17.77;;;16.90;99.90;;;;;;5076120;28;20459;-70
2023/10/07 08:40:56;;;;;;;25.63;16.85;;;17.00;99.90;;;;;;5076160;28;20028;-70
2023/10/07 08:43:32;;;;;;;25.73;17.05;;;16.90;99.90;;;;;;5075730;28;20029;-70
2023/10/07 08:46:01;;;;;;;23.77;16.02;;;16.70;99.90;;;;;;5076162;28;20158;-70
2023/10/07 08:48:30;;;;;;;19.77;15.55;;;16.70;99.90;;;;;;5076028;28;20466;-70
2023/10/07 08:50:55;;;;;;;25.23;16.25;;;16.70;99.90;;;;;;5075809;28;20021;-71
2023/10/07 08:53:26;;;;;;;22.75;16.83;;;16.80;99.90;;;;;;5075976;28;20466;-70
2023/10/07 08:55:53;;;;;;;25.63;16.23;;;16.80;99.90;;;;;;5075742;28;20029;-70
2023/10/07 08:58:25;;;;;;;25.63;16.63;;;17.00;99.90;;;;;;5075860;28;20470;-70
2023/10/07 09:00:52;;;;;;;20.98;15.70;;;17.20;99.90;;;;;;5075711;28;20021;-70
2023/10/07 09:03:19;;;;;;;20.95;14.40;;;17.80;98.10;;;;;;5075043;28;20057;-70
2023/10/07 09:05:47;;;;;;;18.27;12.70;;;18.10;74.30;;;;;;5075768;28;20031;-70
2023/10/07 09:08:15;;;;;;;17.38;11.05;;;18.30;52.70;;;;;;5075588;28;20025;-72
2023/10/07 09:10:45;;;;;;;19.90;12.32;;;18.20;57.20;;;;;;5075562;28;20031;-70
2023/10/07 09:13:12;;;;;;;16.65;11.75;;;17.80;73.00;;;;;;5075789;28;20028;-70
2023/10/07 09:15:42;;;;;;;19.50;11.82;;;17.50;92.60;;;;;;5075232;28;20043;-71
2023/10/07 09:18:10;;;;;;;21.35;10.98;;;17.40;99.90;;;;;;5075453;28;20574;-71
2023/10/07 09:20:45;;;;;;;18.63;11.20;;;17.50;99.90;;;;;;5075331;28;20121;-70
2023/10/07 09:23:41;;;;;;;14.98;10.25;;;17.50;95.90;;;;;;5075112;28;20510;-70
2023/10/07 09:26:14;;;;;;;14.18;9.40;;;17.50;97.00;;;;;;5073517;28;20074;-71
2023/10/07 09:28:39;;;;;;;14.90;8.93;;;17.60;92.40;;;;;;5075184;28;20411;-70
2023/10/07 09:31:06;;;;;;;16.95;8.73;;;17.50;93.20;;;;;;5075367;28;20040;-70
2023/10/07 09:33:36;;;;;;;19.35;9.23;;;17.50;95.40;;;;;;5075065;28;20020;-70
2023/10/07 09:36:33;;;;;;;13.27;8.45;;;17.50;97.10;;;;;;5075148;28;20449;-71
2023/10/07 09:38:48;;;;;;;15.35;8.05;;;17.60;96.80;;;;;;5074275;28;20375;-70
2023/10/07 09:43:51;;;;;;;13.02;7.00;;;18.10;78.70;;;;;;5075067;28;20032;-70
2023/10/07 09:46:24;;;;;;;13.30;6.60;;;19.10;27.40;;;;;;5074825;28;20036;-70
2023/10/07 09:48:51;;;;;;;15.23;7.03;;;19.80;1.00;;;;;;5074497;28;20419;-70
2023/10/07 09:51:28;;;;;;;13.10;5.68;;;19.80;1.00;;;;;;5074698;28;20025;-70
2023/10/07 09:54:22;;;;;;;9.68;6.18;;;19.60;1.00;;;;;;5074469;28;20032;-71
2023/10/07 09:57:22;;;;;;;11.85;6.13;;;19.50;1.00;;;;;;5075006;28;20051;-71
2023/10/07 10:00:42;;;;;;;11.85;5.63;;;19.50;1.00;;;;;;5073881;28;20028;-74
2023/10/07 10:03:39;;;;;;;12.63;4.82;;;20.10;1.00;;;;;;5073627;28;20541;-71
2023/10/07 10:09:09;;;;;;;11.73;5.00;;;20.10;1.00;;;;;;5071327;28;20440;-71
2023/10/07 10:14:17;;;;;;;10.95;5.05;;;20.60;1.00;;;;;;5111962;27;20438;-71
2023/10/07 10:16:54;;;;;;;8.48;4.32;;;20.50;1.00;;;;;;5111491;28;20016;-71
2023/10/07 10:19:25;;;;;;;8.90;4.82;;;20.70;1.00;;;;;;5112095;28;20483;-71
2023/10/07 10:21:52;;;;;;;8.60;4.05;;;21.00;99.90;;;;;;5111969;28;20024;-71
2023/10/07 10:24:23;;;;;;;10.73;4.60;;;21.10;99.90;;;;;;5111673;28;20469;-71
2023/10/07 10:26:50;;;;;;;10.00;4.00;;;21.30;99.90;;;;;;5111764;28;20489;-71
2023/10/07 10:29:25;;;;;;;9.73;4.10;;;21.60;99.90;;;;;;5111677;28;20484;-71
2023/10/07 10:31:52;;;;;;;7.90;3.53;;;21.70;99.90;;;;;;5111509;28;20474;-71
2023/10/07 10:34:20;;;;;;;8.57;3.58;;;21.90;98.80;;;;;;5111382;28;20024;-71
2023/10/07 10:36:49;;;;;;;7.90;3.65;;;22.00;99.90;;;;;;5111341;28;20028;-71
2023/10/07 10:39:25;;;;;;;11.27;3.78;;;21.90;59.60;;;;;;5110799;28;20019;-71
2023/10/07 10:41:53;;;;;;;6.82;3.70;;;21.50;99.90;;;;;;5110814;28;20492;-71
2023/10/07 10:44:20;;;;;;;10.25;3.80;;;21.50;99.90;;;;;;5110533;28;20023;-71
2023/10/07 10:46:48;;;;;;;10.07;3.58;;;21.50;99.90;;;;;;5110812;28;20050;-70
2023/10/07 10:49:16;;;;;;;11.55;3.63;;;21.80;99.90;;;;;;5111080;28;20030;-71
2023/10/07 10:51:45;;;;;;;9.52;3.47;;;22.30;1.00;;;;;;5110743;28;20506;-71
2023/10/07 10:54:20;;;;;;;7.75;3.15;;;21.90;1.00;;;;;;5111067;28;20038;-71
2023/10/07 10:56:49;;;;;;;11.55;3.42;;;21.80;99.90;;;;;;5110622;28;20108;-70
2023/10/07 10:59:16;;;;;;;10.57;3.92;;;21.50;99.90;;;;;;5110218;28;20103;-70
2023/10/07 11:01:44;;;;;;;6.47;3.63;;;21.40;99.90;;;;;;5111095;28;20024;-70
2023/10/07 11:04:12;;;;;;;8.00;3.72;;;21.40;99.90;;;;;;5111206;28;20030;-71
2023/10/07 11:06:39;;;;;;;7.88;3.80;;;21.40;99.90;;;;;;5110502;28;20115;-74
2023/10/07 11:09:05;;;;;;;11.88;3.20;;;21.50;99.90;;;;;;5111097;28;20032;-70
2023/10/07 11:11:35;;;;;;;10.32;3.70;;;21.80;99.90;;;;;;5110307;28;20023;-70
2023/10/07 11:14:07;;;;;;;8.13;3.60;;;21.90;99.90;;;;;;5109798;28;20478;-70
2023/10/07 11:16:43;;;;;;;8.13;2.92;;;22.10;15.30;;;;;;5110903;28;20019;-70
2023/10/07 11:19:12;;;;;;;5.53;3.20;;;22.10;19.60;;;;;;5110902;28;20454;-70
2023/10/07 11:21:44;;;;;;;16.10;3.65;;;22.10;1.00;;;;;;5110316;28;20028;-71
2023/10/07 11:24:14;;;;;;;6.90;3.08;;;22.10;1.00;;;;;;5105463;28;20462;-70
2023/10/07 11:26:42;;;;;;;6.80;3.33;;;22.30;99.90;;;;;;5096467;28;20024;-70
2023/10/07 11:29:15;;;;;;;9.25;3.30;;;22.10;33.20;;;;;;5096554;28;20043;-70
2023/10/07 11:31:41;;;;;;;13.77;3.70;;;21.50;99.90;;;;;;5096833;28;20466;-70
2023/10/07 11:34:10;;;;;;;9.00;3.08;;;21.30;99.90;;;;;;5096605;28;20042;-70
2023/10/07 11:36:50;;;;;;;6.30;3.10;;;20.90;99.90;;;;;;5097070;28;20077;-70
2023/10/07 11:39:16;;;;;;;7.28;2.88;;;20.80;99.90;;;;;;5096049;28;20035;-70
2023/10/07 11:41:42;;;;;;;10.88;3.58;;;20.70;1.00;;;;;;5096804;28;20024;-70
2023/10/07 11:44:10;;;;;;;9.93;3.42;;;20.70;1.00;;;;;;5096605;28;20031;-70
2023/10/07 11:46:37;;;;;;;9.77;3.45;;;20.60;1.00;;;;;;5096812;28;20028;-70
2023/10/07 11:49:03;;;;;;;9.05;3.63;;;20.60;1.00;;;;;;5096327;28;20089;-71
2023/10/07 11:51:29;;;;;;;8.93;3.63;;;20.60;1.00;;;;;;5096103;28;20028;-70
2023/10/07 11:53:55;;;;;;;8.15;3.42;;;20.70;1.00;;;;;;5096055;28;20492;-70
2023/10/07 11:56:21;;;;;;;7.15;2.97;;;20.80;1.00;;;;;;5096355;28;20107;-71
2023/10/07 11:58:49;;;;;;;6.13;3.00;;;20.80;1.00;;;;;;5096351;28;20020;-71
2023/10/07 12:01:17;;;;;;;6.60;3.20;;;20.90;1.00;;;;;;5095925;28;20024;-70
2023/10/07 12:03:45;;;;;;;6.05;3.40;;;20.90;99.90;;;;;;5096532;28;20032;-72
2023/10/07 12:06:11;;;;;;;7.45;3.47;;;21.00;1.00;;;;;;5095836;28;20386;-71
2023/10/07 12:08:38;;;;;;;7.72;3.20;;;21.20;1.00;;;;;;5096353;28;20032;-71
2023/10/07 12:11:05;;;;;;;8.90;3.28;;;21.10;99.90;;;;;;5096058;28;20377;-71
2023/10/07 12:13:31;;;;;;;11.23;3.50;;;21.10;99.90;;;;;;5095264;28;20114;-75
2023/10/07 12:15:56;;;;;;;10.15;3.70;;;21.10;99.90;;;;;;5095346;28;20121;-70
2023/10/07 12:18:22;;;;;;;5.45;3.10;;;21.10;99.90;;;;;;5095903;28;20024;-71
2023/10/07 12:20:47;;;;;;;9.90;3.60;;;21.00;99.90;;;;;;5095906;28;20027;-70
2023/10/07 12:23:13;;;;;;;11.88;3.65;;;21.10;99.90;;;;;;5096025;28;20031;-70
2023/10/07 12:25:41;;;;;;;7.65;3.03;;;21.00;99.90;;;;;;5095985;28;20078;-70
2023/10/07 12:28:08;;;;;;;8.60;3.78;;;21.10;99.90;;;;;;5096050;28;20024;-70
2023/10/07 12:30:34;;;;;;;8.52;3.80;;;21.10;99.90;;;;;;5095937;28;20032;-70
2023/10/07 12:33:01;;;;;;;9.43;3.60;;;21.20;99.90;;;;;;5095412;28;20024;-70
2023/10/07 12:35:33;;;;;;;8.30;3.97;;;21.10;99.90;;;;;;5094701;28;20020;-71
2023/10/07 12:38:00;;;;;;;11.52;4.07;;;21.00;99.90;;;;;;5095569;28;20436;-71
2023/10/07 12:40:28;;;;;;;9.57;3.85;;;21.00;99.90;;;;;;5094516;28;20058;-71
2023/10/07 12:42:54;;;;;;;8.07;3.90;;;21.10;99.90;;;;;;5095684;28;20032;-70
2023/10/07 12:45:20;;;;;;;9.18;4.35;;;21.10;99.90;;;;;;5095375;28;20451;-70
2023/10/07 12:47:50;;;;;;;8.82;4.28;;;21.00;99.90;;;;;;5095246;28;20031;-70
2023/10/07 12:50:20;;;;;;;7.00;3.60;;;21.00;99.90;;;;;;5095297;28;20347;-70
2023/10/07 12:52:48;;;;;;;9.07;4.00;;;21.10;99.90;;;;;;5095024;28;20032;-71
2023/10/07 12:55:14;;;;;;;9.27;4.40;;;21.20;99.90;;;;;;5095425;28;20027;-70
2023/10/07 12:57:41;;;;;;;11.50;4.25;;;21.30;99.90;;;;;;5094931;28;20028;-70
2023/10/07 13:00:19;;;;;;;5.47;3.60;;;21.50;99.90;;;;;;5095119;28;20427;-70
2023/10/07 13:02:46;;;;;;;9.15;4.00;;;21.50;99.90;;;;;;5095114;28;20101;-70
2023/10/07 13:05:18;;;;;;;11.95;3.83;;;21.50;97.80;;;;;;5094595;28;20115;-71
2023/10/07 13:07:47;;;;;;;8.85;4.70;;;21.60;41.50;;;;;;5094903;28;20031;-73
2023/10/07 13:10:14;;;;;;;8.88;4.00;;;21.60;1.00;;;;;;5094799;28;20047;-70
2023/10/07 13:12:40;;;;;;;11.18;4.18;;;21.40;17.10;;;;;;5094490;28;20047;-70
2023/10/07 13:15:14;;;;;;;9.75;4.03;;;21.20;99.90;;;;;;5094830;28;20095;-70
2023/10/07 13:17:41;;;;;;;10.52;3.70;;;21.20;99.90;;;;;;5094781;28;20024;-70
2023/10/07 13:20:08;;;;;;;10.20;4.25;;;21.40;99.90;;;;;;5094523;28;20550;-70
2023/10/07 13:22:33;;;;;;;12.02;4.47;;;21.70;47.90;;;;;;5094700;28;20024;-70
2023/10/07 13:24:59;;;;;;;9.05;4.07;;;22.00;1.00;;;;;;5094532;28;20173;-70
2023/10/07 13:27:26;;;;;;;9.35;4.85;;;22.00;1.00;;;;;;5094597;28;20035;-70
2023/10/07 13:29:52;;;;;;;12.13;4.90;;;21.80;99.90;;;;;;5094698;28;20028;-70
2023/10/07 13:32:17;;;;;;;10.93;4.30;;;21.90;99.90;;;;;;5094512;28;20038;-70
2023/10/07 13:34:43;;;;;;;12.43;4.78;;;21.80;7.60;;;;;;5094520;28;20462;-70
2023/10/07 13:37:11;;;;;;;10.45;4.75;;;21.90;99.90;;;;;;5094674;28;20029;-70
2023/10/07 13:39:38;;;;;;;8.45;4.78;;;22.10;99.90;;;;;;5094294;28;20021;-70
2023/10/07 13:42:09;;;;;;;8.70;4.30;;;21.80;1.00;;;;;;5094755;28;20115;-71
2023/10/07 13:44:35;;;;;;;6.95;4.40;;;21.70;99.90;;;;;;5094695;28;20023;-70
2023/10/07 13:47:01;;;;;;;7.53;4.15;;;21.70;1.00;;;;;;5093503;28;20032;-71
2023/10/07 13:49:27;;;;;;;11.20;4.63;;;21.70;1.00;;;;;;5094351;28;20031;-70